Time;durP1;ratioP1;P1;durP2;ratioP2;P2;SDS_P1;SDS_P2;PMS_P1;PMS_P2;Temp;Humidity;BMP_temperature;BMP_pressure;BME280_temperature;BME280_humidity;BME280_pressure;Samples;Min_cycle;Max_cycle;Signal;HPM_P1;HPM_P2
2023/02/24 00:01:44;;;;;;;9.15;5.43;;;7.90;51.60;;;;;;4997611;28;20030;-76
2023/02/24 00:04:12;;;;;;;8.90;5.38;;;7.90;51.60;;;;;;4996116;28;20042;-78
2023/02/24 00:06:42;;;;;;;13.57;5.35;;;7.90;51.50;;;;;;4996957;28;20038;-77
2023/02/24 00:09:11;;;;;;;8.60;5.20;;;7.90;51.40;;;;;;4994920;28;20472;-77
2023/02/24 00:11:41;;;;;;;9.55;5.22;;;7.90;51.30;;;;;;4997083;28;20042;-77
2023/02/24 00:14:09;;;;;;;9.80;4.85;;;7.90;51.10;;;;;;4996597;28;20141;-76
2023/02/24 00:16:38;;;;;;;9.30;5.18;;;7.90;51.10;;;;;;4998311;28;20516;-76
2023/02/24 00:19:06;;;;;;;9.07;5.00;;;7.90;51.10;;;;;;4996129;28;20035;-77
2023/02/24 00:21:33;;;;;;;7.72;4.70;;;7.90;51.10;;;;;;4995490;28;20446;-76
2023/02/24 00:24:00;;;;;;;7.18;4.45;;;7.90;51.10;;;;;;4996631;28;20038;-76
2023/02/24 00:26:28;;;;;;;7.20;4.70;;;7.90;51.00;;;;;;4996690;28;20417;-75
2023/02/24 00:28:59;;;;;;;7.68;4.30;;;7.90;50.90;;;;;;4994306;28;20393;-76
2023/02/24 00:31:29;;;;;;;7.10;4.93;;;7.90;50.80;;;;;;5011448;28;20034;-75
2023/02/24 00:33:57;;;;;;;13.10;4.72;;;7.90;51.00;;;;;;5011252;28;20501;-76
2023/02/24 00:36:24;;;;;;;6.20;4.38;;;7.90;50.90;;;;;;5010742;28;20733;-76
2023/02/24 00:38:56;;;;;;;7.20;4.95;;;7.90;50.90;;;;;;4996228;28;20034;-78
2023/02/24 00:41:30;;;;;;;7.93;4.47;;;7.90;50.90;;;;;;5010276;28;20034;-82
2023/02/24 00:44:05;;;;;;;8.30;4.95;;;7.90;50.90;;;;;;4995593;28;20039;-80
2023/02/24 00:46:34;;;;;;;6.97;4.60;;;8.00;50.90;;;;;;5010579;28;20038;-79
2023/02/24 00:49:04;;;;;;;7.40;5.10;;;7.90;50.90;;;;;;5011411;28;20049;-79
2023/02/24 00:51:34;;;;;;;10.10;4.45;;;8.00;50.90;;;;;;5010184;28;20400;-79
2023/02/24 00:54:01;;;;;;;6.75;4.35;;;8.00;51.00;;;;;;5010872;28;20042;-79
2023/02/24 00:56:28;;;;;;;7.00;4.38;;;7.90;50.80;;;;;;5011223;28;20093;-78
2023/02/24 00:58:56;;;;;;;9.48;4.68;;;7.90;50.80;;;;;;5011515;28;20041;-79
2023/02/24 01:01:29;;;;;;;6.75;4.60;;;7.90;50.80;;;;;;4996156;28;20030;-79
2023/02/24 01:04:04;;;;;;;7.15;4.55;;;7.90;50.70;;;;;;4995677;28;20034;-79
2023/02/24 01:06:32;;;;;;;7.60;4.90;;;8.00;50.70;;;;;;4994660;28;20948;-77
2023/02/24 01:08:59;;;;;;;8.20;4.43;;;8.00;50.70;;;;;;5009615;28;20410;-77
2023/02/24 01:14:20;;;;;;;6.75;4.40;;;7.90;50.60;;;;;;5010429;28;20530;-78
2023/02/24 01:16:49;;;;;;;6.32;3.90;;;7.90;50.50;;;;;;4994819;28;20034;-77
2023/02/24 01:19:21;;;;;;;7.47;5.00;;;7.90;50.40;;;;;;4995363;28;20034;-77
2023/02/24 01:21:53;;;;;;;7.60;4.55;;;8.00;50.40;;;;;;5014184;28;20475;-78
2023/02/24 01:24:27;;;;;;;7.78;4.55;;;8.00;50.60;;;;;;5013995;28;20030;-78
2023/02/24 01:26:53;;;;;;;9.32;4.82;;;8.00;50.40;;;;;;5014817;28;20509;-77
2023/02/24 01:29:21;;;;;;;7.53;4.70;;;8.00;50.40;;;;;;5000117;28;20068;-77
2023/02/24 01:31:49;;;;;;;6.05;4.10;;;7.90;50.50;;;;;;5013191;28;20181;-77
2023/02/24 01:34:17;;;;;;;7.65;4.65;;;8.00;50.60;;;;;;5002860;28;20049;-76
2023/02/24 01:36:43;;;;;;;7.13;4.53;;;7.90;50.50;;;;;;4997705;28;20026;-77
2023/02/24 01:39:11;;;;;;;6.68;4.47;;;8.00;50.50;;;;;;5014357;28;20031;-77
2023/02/24 01:41:40;;;;;;;7.70;4.65;;;8.00;50.50;;;;;;4999461;28;20066;-78
2023/02/24 01:44:31;;;;;;;7.00;4.55;;;8.00;50.50;;;;;;5012991;28;20064;-78
2023/02/24 01:47:00;;;;;;;6.50;4.45;;;8.00;50.50;;;;;;5014362;28;20046;-75
2023/02/24 01:49:35;;;;;;;8.10;4.78;;;7.90;50.30;;;;;;4997647;28;20092;-76
2023/02/24 01:52:12;;;;;;;7.93;4.40;;;8.00;50.30;;;;;;4998968;28;20368;-78
2023/02/24 01:54:47;;;;;;;9.10;4.87;;;8.00;50.20;;;;;;4995976;28;20453;-77
2023/02/24 01:57:18;;;;;;;5.80;4.10;;;8.00;50.20;;;;;;5014054;28;20042;-77
2023/02/24 01:59:47;;;;;;;9.23;5.43;;;7.90;50.10;;;;;;5014785;28;20100;-79
2023/02/24 02:02:14;;;;;;;9.15;4.97;;;7.90;50.00;;;;;;5013716;28;20045;-77
2023/02/24 02:04:43;;;;;;;8.30;5.65;;;7.90;49.90;;;;;;5014015;28;20042;-79
2023/02/24 02:07:14;;;;;;;9.48;5.10;;;7.90;49.90;;;;;;5013151;28;21620;-76
2023/02/24 02:09:41;;;;;;;8.75;4.93;;;7.90;49.90;;;;;;4995831;28;20085;-78
2023/02/24 02:12:09;;;;;;;7.72;5.10;;;7.90;49.80;;;;;;5012941;28;20902;-79
2023/02/24 02:14:38;;;;;;;7.15;4.93;;;8.00;49.80;;;;;;4998601;28;20046;-80
2023/02/24 02:17:23;;;;;;;9.25;5.32;;;7.90;49.70;;;;;;5013971;28;20037;-81
2023/02/24 02:20:14;;;;;;;;;;;7.90;49.70;;;;;;4998144;28;20033;-80
2023/02/24 02:23:11;;;;;;;7.60;4.78;;;7.90;49.80;;;;;;5013167;28;20012;-79
2023/02/24 02:25:56;;;;;;;;;;;7.90;50.00;;;;;;5014630;28;20069;-79
2023/02/24 02:28:59;;;;;;;9.18;5.03;;;7.90;49.90;;;;;;5012734;28;19959;-79
2023/02/24 02:31:34;;;;;;;6.75;4.30;;;7.90;49.90;;;;;;4997394;28;20136;-79
2023/02/24 02:34:29;;;;;;;6.70;4.20;;;7.90;49.90;;;;;;4997991;28;20029;-80
2023/02/24 02:37:36;;;;;;;8.13;5.18;;;7.90;49.90;;;;;;5013042;28;20064;-78
2023/02/24 02:40:07;;;;;;;8.45;4.97;;;7.90;49.90;;;;;;5012608;28;20080;-82
2023/02/24 02:42:52;;;;;;;7.68;5.07;;;7.90;49.80;;;;;;5013218;28;20053;-79
2023/02/24 02:45:27;;;;;;;9.25;4.90;;;7.90;49.90;;;;;;4997619;28;20034;-78
2023/02/24 02:48:14;;;;;;;9.00;5.30;;;7.90;49.70;;;;;;5012948;28;20032;-77
2023/02/24 02:50:53;;;;;;;6.53;4.45;;;7.90;49.70;;;;;;4984898;28;20081;-78
2023/02/24 02:53:45;;;;;;;6.57;4.25;;;7.90;49.60;;;;;;4996415;28;20137;-78
2023/02/24 02:56:32;;;;;;;8.40;4.43;;;7.90;49.60;;;;;;4996314;28;20120;-79
2023/02/24 02:58:59;;;;;;;8.05;5.28;;;7.90;49.40;;;;;;5013202;28;20057;-78
2023/02/24 03:01:32;;;;;;;7.45;4.72;;;7.90;50.00;;;;;;4999139;28;20093;-77
2023/02/24 03:04:04;;;;;;;8.35;4.93;;;7.90;49.40;;;;;;5011718;28;20493;-78
2023/02/24 03:06:42;;;;;;;8.75;4.68;;;7.90;49.30;;;;;;4996675;28;20125;-76
2023/02/24 03:09:18;;;;;;;7.07;4.90;;;7.90;49.20;;;;;;5012181;28;20494;-78
2023/02/24 03:11:52;;;;;;;8.00;4.55;;;7.90;49.20;;;;;;4997966;28;20430;-78
2023/02/24 03:14:25;;;;;;;9.07;4.45;;;7.90;49.30;;;;;;5013010;28;20054;-80
2023/02/24 03:16:54;;;;;;;8.85;4.43;;;7.90;49.40;;;;;;5012306;28;20027;-79
2023/02/24 03:19:26;;;;;;;7.05;4.57;;;7.90;49.50;;;;;;5011277;28;20035;-79
2023/02/24 03:22:05;;;;;;;6.43;4.32;;;7.90;49.40;;;;;;4997479;28;20052;-78
2023/02/24 03:24:35;;;;;;;9.48;4.75;;;7.90;49.40;;;;;;4997573;28;20042;-78
2023/02/24 03:27:22;;;;;;;6.95;4.80;;;7.90;49.30;;;;;;5011731;28;20042;-79
2023/02/24 03:30:06;;;;;;;8.82;4.68;;;7.90;49.30;;;;;;5004473;28;20057;-79
2023/02/24 03:33:00;;;;;;;6.68;4.10;;;7.90;49.20;;;;;;4996537;28;20381;-79
2023/02/24 03:35:33;;;;;;;7.75;4.97;;;7.90;49.30;;;;;;5011214;28;20563;-78
2023/02/24 03:38:03;;;;;;;8.50;4.80;;;7.90;49.30;;;;;;4994994;28;20030;-78
2023/02/24 03:40:34;;;;;;;8.38;4.45;;;7.90;49.40;;;;;;5011709;28;20655;-78
2023/02/24 03:43:24;;;;;;;7.63;4.68;;;7.80;49.20;;;;;;5009996;28;20073;-79
2023/02/24 03:45:53;;;;;;;8.93;4.75;;;7.90;49.20;;;;;;4979808;28;20041;-80
2023/02/24 03:48:20;;;;;;;8.52;4.88;;;7.90;49.10;;;;;;5011196;28;20035;-81
2023/02/24 03:50:46;;;;;;;8.10;5.32;;;7.80;49.10;;;;;;4996652;28;20039;-74
2023/02/24 03:53:54;;;;;;;6.80;4.75;;;7.80;49.00;;;;;;5012248;28;20061;-78
2023/02/24 03:56:26;;;;;;;11.45;5.07;;;7.90;49.10;;;;;;5010950;28;20034;-79
2023/02/24 03:59:22;;;;;;;10.18;5.32;;;7.80;49.00;;;;;;5012469;28;20485;-79
2023/02/24 04:01:56;;;;;;;7.60;4.75;;;7.80;49.00;;;;;;4994557;28;21065;-77
2023/02/24 04:04:53;;;;;;;8.87;5.23;;;7.80;49.00;;;;;;5010745;28;20033;-79
2023/02/24 04:07:51;;;;;;;6.80;4.63;;;7.80;49.10;;;;;;5012112;28;21056;-77
2023/02/24 04:10:51;;;;;;;7.53;4.20;;;7.80;49.30;;;;;;5011508;28;20030;-78
2023/02/24 04:13:45;;;;;;;7.18;4.60;;;7.80;49.30;;;;;;5002773;28;20030;-79
2023/02/24 04:16:28;;;;;;;7.50;5.00;;;7.80;49.90;;;;;;5011260;28;20069;-78
2023/02/24 04:19:07;;;;;;;9.38;5.10;;;7.80;49.30;;;;;;4998348;28;20520;-78
2023/02/24 04:21:37;;;;;;;7.82;5.03;;;7.80;49.30;;;;;;5011145;28;20076;-79
2023/02/24 04:24:10;;;;;;;8.43;5.20;;;7.90;49.30;;;;;;5010822;28;20034;-79
2023/02/24 04:26:41;;;;;;;8.68;4.45;;;7.80;49.30;;;;;;5010981;28;20038;-78
2023/02/24 04:29:12;;;;;;;8.45;5.00;;;7.80;49.20;;;;;;5010759;28;20095;-80
2023/02/24 04:31:39;;;;;;;8.07;4.65;;;7.80;49.20;;;;;;4983235;28;20041;-78
2023/02/24 04:34:08;;;;;;;6.97;4.70;;;7.80;49.10;;;;;;4995608;28;20708;-78
2023/02/24 04:36:37;;;;;;;7.90;4.93;;;7.80;49.10;;;;;;4999052;28;20034;-78
2023/02/24 04:39:06;;;;;;;7.90;5.00;;;7.80;49.10;;;;;;5010452;28;20125;-77
2023/02/24 04:41:31;;;;;;;7.03;4.68;;;7.80;49.00;;;;;;5010959;28;20030;-79
2023/02/24 04:43:57;;;;;;;8.77;4.88;;;7.80;48.90;;;;;;5011570;28;20034;-79
2023/02/24 04:46:23;;;;;;;7.38;4.68;;;7.80;48.90;;;;;;4996068;28;20188;-78
2023/02/24 04:48:49;;;;;;;8.15;4.88;;;7.80;48.90;;;;;;5010660;28;20053;-76
2023/02/24 04:51:15;;;;;;;8.02;4.88;;;7.80;48.90;;;;;;4994132;28;20034;-78
2023/02/24 04:53:41;;;;;;;9.18;4.88;;;7.80;48.90;;;;;;4993529;28;20041;-78
2023/02/24 04:56:08;;;;;;;8.77;5.35;;;7.80;48.90;;;;;;4993906;28;20481;-79
2023/02/24 04:58:36;;;;;;;7.07;4.53;;;7.80;48.80;;;;;;4996696;28;20030;-78
2023/02/24 05:01:09;;;;;;;8.20;4.75;;;7.80;48.80;;;;;;4994607;28;20091;-78
2023/02/24 05:03:36;;;;;;;7.07;4.53;;;7.80;49.00;;;;;;4995511;28;20037;-78
2023/02/24 05:06:05;;;;;;;6.45;4.90;;;7.80;49.00;;;;;;4995662;28;20034;-77
2023/02/24 05:08:31;;;;;;;5.68;4.38;;;7.80;49.00;;;;;;4995544;28;20508;-78
2023/02/24 05:10:59;;;;;;;7.13;4.68;;;7.80;49.00;;;;;;4996612;28;20064;-78
2023/02/24 05:13:30;;;;;;;8.88;5.75;;;7.90;49.00;;;;;;4995756;28;20145;-78
2023/02/24 05:16:07;;;;;;;8.45;5.22;;;7.80;49.00;;;;;;4995633;28;20066;-80
2023/02/24 05:18:37;;;;;;;7.78;4.63;;;7.90;48.90;;;;;;5010678;28;20039;-79
2023/02/24 05:24:05;;;;;;;7.32;4.82;;;7.90;48.80;;;;;;4996087;28;20039;-79
2023/02/24 05:26:34;;;;;;;7.43;4.55;;;7.90;48.90;;;;;;4995883;28;20428;-80
2023/02/24 05:29:01;;;;;;;8.20;4.97;;;7.90;48.80;;;;;;4994790;28;20374;-79
2023/02/24 05:31:29;;;;;;;7.75;5.43;;;7.90;48.80;;;;;;4995652;28;20028;-79
2023/02/24 05:34:01;;;;;;;10.05;5.05;;;7.90;48.80;;;;;;4995724;28;20087;-77
2023/02/24 05:36:38;;;;;;;8.40;4.97;;;7.90;48.80;;;;;;4995096;28;20182;-78
2023/02/24 05:39:11;;;;;;;10.52;4.55;;;7.90;48.70;;;;;;4995544;28;20120;-79
2023/02/24 05:41:41;;;;;;;10.30;4.72;;;7.90;48.70;;;;;;4995272;28;20423;-79
2023/02/24 05:44:14;;;;;;;8.60;5.10;;;7.90;48.70;;;;;;5006905;28;20037;-79
2023/02/24 05:46:44;;;;;;;6.82;4.70;;;7.90;48.70;;;;;;5009276;28;20042;-79
2023/02/24 05:49:21;;;;;;;8.98;5.03;;;7.90;48.60;;;;;;5008397;28;20038;-78
2023/02/24 05:51:55;;;;;;;9.68;4.88;;;7.90;48.70;;;;;;4993791;28;20034;-78
2023/02/24 05:54:27;;;;;;;7.90;4.63;;;7.90;48.70;;;;;;5005398;28;20037;-80
2023/02/24 05:56:56;;;;;;;8.75;5.00;;;8.00;48.80;;;;;;4991689;28;20128;-79
2023/02/24 05:59:22;;;;;;;7.93;4.72;;;8.00;48.80;;;;;;4998204;28;20088;-78
2023/02/24 06:01:52;;;;;;;8.35;5.28;;;8.00;48.90;;;;;;5010644;28;20580;-78
2023/02/24 06:04:37;;;;;;;9.25;5.40;;;8.00;48.80;;;;;;4993533;28;20149;-78
2023/02/24 06:07:12;;;;;;;8.73;5.13;;;8.00;48.80;;;;;;5011730;28;20041;-79
2023/02/24 06:09:41;;;;;;;8.80;5.45;;;8.00;48.80;;;;;;4998604;28;20037;-79
2023/02/24 06:12:08;;;;;;;8.88;5.10;;;8.00;48.70;;;;;;4996136;28;20038;-80
2023/02/24 06:14:34;;;;;;;8.30;4.90;;;8.00;48.60;;;;;;4997893;28;20046;-80
2023/02/24 06:17:03;;;;;;;8.70;5.20;;;8.00;48.70;;;;;;5013327;28;20026;-80
2023/02/24 06:19:32;;;;;;;7.45;5.25;;;8.00;48.60;;;;;;4998676;28;20124;-80
2023/02/24 06:22:05;;;;;;;7.32;4.95;;;8.10;48.70;;;;;;4998524;28;20489;-79
2023/02/24 06:24:32;;;;;;;7.97;4.88;;;8.10;48.70;;;;;;4998596;28;20540;-82
2023/02/24 06:27:04;;;;;;;7.63;5.15;;;8.10;48.70;;;;;;4997525;28;20068;-79
2023/02/24 06:29:30;;;;;;;12.68;5.47;;;8.10;49.40;;;;;;4995737;28;20117;-81
2023/02/24 06:31:56;;;;;;;8.98;5.53;;;8.10;48.70;;;;;;4999568;28;20038;-82
2023/02/24 06:34:26;;;;;;;8.90;5.35;;;8.10;48.70;;;;;;5014145;28;20647;-83
2023/02/24 06:36:53;;;;;;;11.38;5.10;;;8.10;48.60;;;;;;5012779;28;20065;-82
2023/02/24 06:39:18;;;;;;;8.88;5.53;;;8.10;48.60;;;;;;4997303;28;20034;-76
2023/02/24 06:41:48;;;;;;;8.68;5.53;;;8.10;48.60;;;;;;5012342;28;20033;-78
2023/02/24 06:44:14;;;;;;;7.68;5.07;;;8.10;48.70;;;;;;4997469;28;20088;-80
2023/02/24 06:46:40;;;;;;;8.55;5.50;;;8.10;48.80;;;;;;4995851;28;20058;-77
2023/02/24 06:49:07;;;;;;;8.82;4.97;;;8.10;48.80;;;;;;4997730;28;20131;-77
2023/02/24 06:51:33;;;;;;;10.80;5.45;;;8.20;49.00;;;;;;4997396;28;20033;-78
2023/02/24 06:54:01;;;;;;;7.63;5.20;;;8.10;49.20;;;;;;4997015;28;20049;-76
2023/02/24 06:56:27;;;;;;;10.20;5.25;;;8.20;49.40;;;;;;4996556;28;20452;-77
2023/02/24 06:58:55;;;;;;;7.95;5.30;;;8.20;49.40;;;;;;4997513;28;20038;-78
2023/02/24 07:01:24;;;;;;;8.27;5.13;;;8.20;49.60;;;;;;4996731;28;20125;-81
2023/02/24 07:04:16;;;;;;;8.50;5.53;;;8.20;49.70;;;;;;5011538;28;20042;-78
2023/02/24 07:06:51;;;;;;;8.50;4.85;;;8.20;50.20;;;;;;4996612;28;20033;-78
2023/02/24 07:09:20;;;;;;;10.73;5.72;;;8.20;49.80;;;;;;4998191;28;20034;-77
2023/02/24 07:11:50;;;;;;;9.05;4.90;;;8.20;49.80;;;;;;4998534;28;20807;-77
2023/02/24 07:14:19;;;;;;;8.98;4.90;;;8.30;50.00;;;;;;4996875;28;20147;-78
2023/02/24 07:16:45;;;;;;;9.52;5.88;;;8.30;50.10;;;;;;4996785;28;20031;-80
2023/02/24 07:19:14;;;;;;;8.40;5.63;;;8.30;50.20;;;;;;5011645;28;20060;-78
2023/02/24 07:21:45;;;;;;;7.90;5.32;;;8.30;50.40;;;;;;4998134;28;20035;-79
2023/02/24 07:24:15;;;;;;;8.68;5.57;;;8.30;50.50;;;;;;4993117;28;20176;-76
2023/02/24 07:26:50;;;;;;;8.32;5.30;;;8.30;50.70;;;;;;4997734;28;20107;-78
2023/02/24 07:29:17;;;;;;;9.23;5.57;;;8.30;50.80;;;;;;4977631;28;20026;-78
2023/02/24 07:31:43;;;;;;;17.80;5.70;;;8.30;51.00;;;;;;5011245;28;20418;-78
2023/02/24 07:34:13;;;;;;;11.68;5.72;;;8.40;51.20;;;;;;5012871;28;20038;-78
2023/02/24 07:36:48;;;;;;;12.98;5.85;;;8.30;51.40;;;;;;5009653;28;20459;-76
2023/02/24 07:39:16;;;;;;;10.80;6.30;;;8.40;51.70;;;;;;5006885;28;20041;-78
2023/02/24 07:41:44;;;;;;;10.23;5.95;;;8.40;51.90;;;;;;4995165;28;20030;-80
2023/02/24 07:44:11;;;;;;;8.32;5.28;;;8.40;52.10;;;;;;4995214;28;20044;-79
2023/02/24 07:46:37;;;;;;;9.38;5.30;;;8.40;52.30;;;;;;5013142;28;20037;-81
2023/02/24 07:49:03;;;;;;;9.35;5.90;;;8.50;52.30;;;;;;4998507;28;20042;-80
2023/02/24 07:51:29;;;;;;;10.10;6.10;;;8.50;52.40;;;;;;4998207;28;20456;-82
2023/02/24 07:53:58;;;;;;;9.38;5.80;;;8.50;52.60;;;;;;5004691;28;20490;-83
2023/02/24 07:56:26;;;;;;;11.57;6.15;;;8.50;52.50;;;;;;5000656;28;20477;-81
2023/02/24 07:59:01;;;;;;;9.70;6.05;;;8.50;52.50;;;;;;5001662;28;20077;-82
2023/02/24 08:01:37;;;;;;;8.35;5.68;;;8.50;52.50;;;;;;5011057;28;20070;-76
2023/02/24 08:04:11;;;;;;;11.00;5.88;;;8.50;52.60;;;;;;5010551;28;20034;-81
2023/02/24 08:06:44;;;;;;;9.88;6.10;;;8.60;52.70;;;;;;5012585;28;20545;-81
2023/02/24 08:09:17;;;;;;;7.65;5.70;;;8.60;52.60;;;;;;4992967;28;20030;-77
2023/02/24 08:11:51;;;;;;;11.43;6.13;;;8.60;52.50;;;;;;5010463;28;20026;-81
2023/02/24 08:14:43;;;;;;;8.13;5.90;;;8.60;52.50;;;;;;4992524;28;20042;-81
2023/02/24 08:17:11;;;;;;;10.82;6.40;;;8.60;52.40;;;;;;4998430;28;20117;-76
2023/02/24 08:19:39;;;;;;;11.32;5.68;;;8.70;52.50;;;;;;4997007;28;20034;-79
2023/02/24 08:22:23;;;;;;;9.77;6.00;;;8.70;52.50;;;;;;4997457;28;20057;-79
2023/02/24 08:24:53;;;;;;;11.03;6.20;;;8.60;52.40;;;;;;4996806;28;20149;-79
2023/02/24 08:27:24;;;;;;;9.93;6.00;;;8.70;52.40;;;;;;4995049;28;20312;-80
2023/02/24 08:30:01;;;;;;;9.27;6.47;;;8.70;52.50;;;;;;4993898;28;20097;-78
2023/02/24 08:32:35;;;;;;;8.23;5.97;;;8.70;52.60;;;;;;5009636;28;20459;-79
2023/02/24 08:35:15;;;;;;;9.88;6.07;;;8.70;52.60;;;;;;5011431;28;20072;-79
2023/02/24 08:37:50;;;;;;;9.43;6.40;;;8.80;52.70;;;;;;5011949;28;20478;-83
2023/02/24 08:43:14;;;;;;;11.23;6.43;;;8.80;52.80;;;;;;5007889;28;20124;-80
2023/02/24 08:45:55;;;;;;;11.25;6.05;;;8.80;53.00;;;;;;4992370;28;20639;-82
2023/02/24 08:48:36;;;;;;;10.60;6.28;;;8.80;53.00;;;;;;5008767;28;20048;-84
2023/02/24 08:51:10;;;;;;;9.02;5.93;;;8.90;53.10;;;;;;4992570;28;20038;-84
2023/02/24 08:53:39;;;;;;;13.35;6.70;;;8.90;53.30;;;;;;4991509;28;20042;-79
2023/02/24 08:56:10;;;;;;;15.82;6.60;;;8.90;54.00;;;;;;4993702;28;20157;-80
2023/02/24 08:58:55;;;;;;;11.88;6.57;;;8.90;53.40;;;;;;4988615;28;20532;-78
2023/02/24 09:01:35;;;;;;;9.68;6.40;;;8.90;53.50;;;;;;4993145;28;20034;-81
2023/02/24 09:04:08;;;;;;;12.15;6.13;;;8.90;53.60;;;;;;5008245;28;20034;-80
2023/02/24 09:06:42;;;;;;;9.07;5.20;;;8.90;53.70;;;;;;4990890;28;20060;-78
2023/02/24 09:09:20;;;;;;;10.90;6.57;;;9.00;53.90;;;;;;4995240;28;20054;-81
2023/02/24 09:11:54;;;;;;;11.18;6.28;;;9.00;54.00;;;;;;4996487;28;20037;-81
2023/02/24 09:14:25;;;;;;;12.30;6.65;;;9.00;54.10;;;;;;5010664;28;20141;-80
2023/02/24 09:17:01;;;;;;;8.50;6.20;;;9.00;54.10;;;;;;5002510;28;20030;-80
2023/02/24 09:23:02;;;;;;;11.20;5.75;;;9.00;54.60;;;;;;4952952;28;20490;-74
2023/02/24 09:25:39;;;;;;;13.68;6.97;;;9.10;54.90;;;;;;4951897;28;20094;-76
2023/02/24 09:28:07;;;;;;;11.85;6.65;;;9.10;55.00;;;;;;4953023;28;20066;-76
2023/02/24 09:30:37;;;;;;;9.38;5.80;;;9.10;55.10;;;;;;4952861;28;20063;-74
2023/02/24 09:33:16;;;;;;;13.93;6.40;;;9.20;55.10;;;;;;4952345;28;20109;-74
2023/02/24 09:36:09;;;;;;;11.52;6.72;;;9.10;55.10;;;;;;4954675;28;20045;-76
2023/02/24 09:41:52;;;;;;;11.98;6.60;;;9.20;55.00;;;;;;4943422;28;20490;-78
2023/02/24 09:44:35;;;;;;;11.38;6.53;;;9.20;55.00;;;;;;4958526;28;20645;-77
2023/02/24 09:47:38;;;;;;;12.63;6.20;;;9.20;55.10;;;;;;4957986;28;20495;-72
2023/02/24 09:50:29;;;;;;;10.52;6.32;;;9.20;55.00;;;;;;4956321;28;20071;-77
2023/02/24 09:53:12;;;;;;;18.67;6.65;;;9.20;55.00;;;;;;4962736;28;20057;-78
2023/02/24 09:56:20;;;;;;;9.80;6.20;;;9.20;55.00;;;;;;4996154;28;20540;-78
2023/02/24 09:59:24;;;;;;;10.07;6.45;;;9.30;54.90;;;;;;4957576;28;20822;-76
2023/02/24 10:02:08;;;;;;;12.23;6.68;;;9.30;54.70;;;;;;4963998;28;20034;-77
2023/02/24 10:04:39;;;;;;;10.70;6.25;;;9.30;54.60;;;;;;4972195;28;20153;-78
2023/02/24 10:07:15;;;;;;;13.10;6.72;;;9.30;54.60;;;;;;4971815;28;20093;-78
2023/02/24 10:09:54;;;;;;;11.60;6.72;;;9.30;54.60;;;;;;4974574;28;20678;-78
2023/02/24 10:12:38;;;;;;;12.10;6.50;;;9.40;54.60;;;;;;4974352;28;20077;-76
2023/02/24 10:15:19;;;;;;;9.85;5.85;;;9.40;54.70;;;;;;4957655;28;20042;-78
2023/02/24 10:17:54;;;;;;;12.30;7.07;;;9.40;54.70;;;;;;4947816;28;20146;-77
2023/02/24 10:20:44;;;;;;;9.85;6.55;;;9.40;54.70;;;;;;4973114;28;20042;-76
2023/02/24 10:23:31;;;;;;;9.90;6.30;;;9.40;54.70;;;;;;4955487;28;20062;-76
2023/02/24 10:26:20;;;;;;;9.55;6.55;;;9.50;54.70;;;;;;4974798;28;20470;-76
2023/02/24 10:28:50;;;;;;;10.95;6.90;;;9.50;54.60;;;;;;4974569;28;20046;-77
2023/02/24 10:31:34;;;;;;;10.43;6.78;;;9.50;54.60;;;;;;4974265;28;20386;-76
2023/02/24 10:34:06;;;;;;;12.60;6.25;;;9.60;54.80;;;;;;4987404;28;20050;-76
2023/02/24 10:36:37;;;;;;;10.52;6.85;;;9.60;54.70;;;;;;4997441;28;20038;-77
2023/02/24 10:39:29;;;;;;;10.85;6.53;;;9.60;54.80;;;;;;4996833;28;20041;-76
2023/02/24 10:41:57;;;;;;;9.85;6.57;;;9.60;54.60;;;;;;4997403;28;20037;-77
2023/02/24 10:44:35;;;;;;;19.85;11.23;;;9.60;54.60;;;;;;5010972;28;20120;-82
2023/02/24 10:47:12;;;;;;;21.13;10.52;;;9.60;53.10;;;;;;4983349;28;20129;-82
2023/02/24 10:49:58;;;;;;;19.38;11.40;;;9.50;50.00;;;;;;4994485;28;20026;-79
2023/02/24 10:52:36;;;;;;;18.63;11.38;;;9.30;49.40;;;;;;5010262;28;20096;-78
2023/02/24 10:59:19;;;;;;;18.45;11.93;;;8.90;49.20;;;;;;4996976;28;20465;-78
2023/02/24 11:01:39;;;;;;;20.23;11.60;;;8.70;49.40;;;;;;4967274;28;20030;-77
2023/02/24 11:04:31;;;;;;;22.65;12.43;;;8.50;49.40;;;;;;4977735;28;20045;-76
2023/02/24 11:07:11;;;;;;;18.92;11.52;;;8.30;49.30;;;;;;5000665;28;20386;-86
2023/02/24 11:09:51;;;;;;;21.70;11.98;;;8.10;49.70;;;;;;4994215;28;20061;-81
2023/02/24 11:18:20;;;;;;;18.02;12.00;;;7.70;50.70;;;;;;5020529;28;20057;-81
2023/02/24 11:20:59;;;;;;;19.50;11.73;;;7.60;50.70;;;;;;4997009;28;20041;-81
2023/02/24 11:23:50;;;;;;;19.35;11.70;;;7.50;51.20;;;;;;5012578;28;20417;-80
2023/02/24 11:26:20;;;;;;;22.10;12.13;;;7.40;51.40;;;;;;4988313;28;20077;-79
2023/02/24 11:28:59;;;;;;;22.23;11.27;;;7.30;51.90;;;;;;4990709;28;20037;-80
2023/02/24 11:32:00;;;;;;;21.10;12.35;;;7.20;52.20;;;;;;4991854;28;20326;-80
2023/02/24 11:34:27;;;;;;;20.88;10.90;;;7.10;51.90;;;;;;4995061;28;20119;-84
2023/02/24 11:37:26;;;;;;;23.08;11.93;;;7.00;51.90;;;;;;4998327;28;20034;-80
2023/02/24 11:39:59;;;;;;;19.63;11.07;;;7.00;52.10;;;;;;4995314;28;20045;-77
2023/02/24 11:42:40;;;;;;;18.45;11.15;;;6.90;52.40;;;;;;5008155;28;20493;-77
2023/02/24 11:45:11;;;;;;;20.63;11.93;;;6.80;52.20;;;;;;4993368;28;20045;-76
2023/02/24 11:48:16;;;;;;;19.77;11.63;;;6.70;52.20;;;;;;5008999;28;20065;-78
2023/02/24 11:50:54;;;;;;;19.10;12.00;;;6.60;52.20;;;;;;4993714;28;20588;-87
2023/02/24 11:53:51;;;;;;;23.02;11.35;;;6.60;52.40;;;;;;5010556;28;20053;-83
2023/02/24 11:56:26;;;;;;;21.60;11.65;;;6.50;52.80;;;;;;4994031;28;20450;-83
2023/02/24 11:59:00;;;;;;;20.80;11.77;;;6.40;52.90;;;;;;5011271;28;20087;-81
2023/02/24 12:01:51;;;;;;;20.77;11.40;;;6.40;53.00;;;;;;5011740;28;20050;-82
2023/02/24 12:04:39;;;;;;;21.88;11.90;;;6.40;52.90;;;;;;5011610;28;20033;-81
2023/02/24 12:07:19;;;;;;;18.83;10.77;;;6.30;53.00;;;;;;4996069;28;20129;-82
2023/02/24 12:09:57;;;;;;;20.08;11.77;;;6.30;53.30;;;;;;4991913;28;20384;-72
2023/02/24 12:12:58;;;;;;;24.05;12.50;;;6.20;53.10;;;;;;4993303;28;20042;-79
2023/02/24 12:15:23;;;;;;;19.05;11.43;;;6.20;53.30;;;;;;5006951;28;20149;-79
2023/02/24 12:17:57;;;;;;;21.40;11.55;;;6.20;53.20;;;;;;4995388;28;20133;-80
2023/02/24 12:20:43;;;;;;;19.48;10.45;;;6.20;54.10;;;;;;4994401;28;20386;-81
2023/02/24 12:23:32;;;;;;;17.85;10.13;;;6.30;55.10;;;;;;5009748;28;20527;-78
2023/02/24 12:26:38;;;;;;;17.20;9.70;;;6.40;56.00;;;;;;5011181;28;20493;-79
2023/02/24 12:29:55;;;;;;;15.98;9.52;;;6.50;56.30;;;;;;4995282;28;20077;-82
2023/02/24 12:32:55;;;;;;;15.48;9.35;;;6.70;56.40;;;;;;4946560;28;20097;-79
2023/02/24 12:35:54;;;;;;;16.33;9.32;;;6.80;56.40;;;;;;4974908;28;20042;-79
2023/02/24 12:38:49;;;;;;;13.88;8.85;;;6.90;56.40;;;;;;4960997;28;20085;-78
2023/02/24 12:41:15;;;;;;;16.55;9.25;;;7.00;56.50;;;;;;4971500;28;20039;-79
2023/02/24 12:44:02;;;;;;;16.08;9.90;;;7.10;56.50;;;;;;4957772;28;20034;-78
2023/02/24 12:46:36;;;;;;;16.23;9.68;;;7.20;56.60;;;;;;4973234;28;20042;-79
2023/02/24 12:49:19;;;;;;;18.77;8.82;;;7.30;56.70;;;;;;4973009;28;20101;-79
2023/02/24 12:52:03;;;;;;;14.07;9.15;;;7.40;56.60;;;;;;4956916;28;20125;-78
2023/02/24 12:54:38;;;;;;;12.55;7.78;;;7.50;56.70;;;;;;4968300;28;20226;-78
2023/02/24 12:57:07;;;;;;;15.15;9.23;;;7.50;56.70;;;;;;4968045;28;20039;-77
2023/02/24 12:59:37;;;;;;;15.18;9.13;;;7.60;56.80;;;;;;4972930;28;20526;-76
2023/02/24 13:02:24;;;;;;;13.43;8.57;;;7.70;56.90;;;;;;4973406;28;20204;-74
2023/02/24 13:04:59;;;;;;;16.55;9.02;;;7.70;56.90;;;;;;4973842;28;20038;-78
2023/02/24 13:07:40;;;;;;;13.30;8.93;;;7.80;56.90;;;;;;4973704;28;20041;-78
2023/02/24 13:10:27;;;;;;;14.02;9.10;;;7.80;56.90;;;;;;5004914;28;20538;-78
2023/02/24 13:13:11;;;;;;;15.00;8.80;;;7.90;56.90;;;;;;4996676;28;20105;-76
2023/02/24 13:15:53;;;;;;;12.82;8.00;;;7.90;56.90;;;;;;5012152;28;20073;-76
2023/02/24 13:18:34;;;;;;;14.55;8.55;;;8.00;57.00;;;;;;5016383;28;20061;-78
2023/02/24 13:21:07;;;;;;;14.82;8.88;;;8.00;57.00;;;;;;5018908;28;20046;-79
2023/02/24 13:23:35;;;;;;;15.48;8.52;;;8.00;57.00;;;;;;5004944;28;20042;-81
2023/02/24 13:26:02;;;;;;;12.80;8.98;;;8.10;57.10;;;;;;5001143;28;20054;-79
2023/02/24 13:28:35;;;;;;;13.80;8.77;;;8.10;57.10;;;;;;5003134;28;20034;-78
2023/02/24 13:31:10;;;;;;;13.40;8.50;;;8.10;57.00;;;;;;5015369;28;20049;-74
2023/02/24 13:33:42;;;;;;;14.40;8.82;;;8.20;56.90;;;;;;5003032;28;20926;-77
2023/02/24 13:36:23;;;;;;;15.15;8.80;;;8.20;57.00;;;;;;4999894;28;20133;-77
2023/02/24 13:39:19;;;;;;;16.73;9.38;;;8.20;57.10;;;;;;5002431;28;20422;-79
2023/02/24 13:41:45;;;;;;;;;;;8.20;57.10;;;;;;4998733;28;20034;-79
2023/02/24 13:44:25;;;;;;;14.18;9.05;;;8.30;57.20;;;;;;5016264;28;19960;-77
2023/02/24 13:47:00;;;;;;;12.93;6.20;;;8.40;60.90;;;;;;5016989;28;20042;-75
2023/02/24 13:49:35;;;;;;;12.25;5.65;;;8.80;74.00;;;;;;5000187;28;20042;-77
2023/02/24 13:52:04;;;;;;;11.18;7.03;;;9.00;71.10;;;;;;5015562;28;20128;-76
2023/02/24 13:55:02;;;;;;;11.68;7.40;;;9.10;67.10;;;;;;5015571;28;20037;-75
2023/02/24 13:58:07;;;;;;;11.80;7.45;;;9.10;64.10;;;;;;4989061;28;20145;-75
2023/02/24 14:00:52;;;;;;;10.23;7.00;;;9.10;62.00;;;;;;4998277;28;20472;-76
2023/02/24 14:03:23;;;;;;;13.48;6.47;;;9.10;60.50;;;;;;5015994;28;20041;-75